Time;durP1;ratioP1;P1;durP2;ratioP2;P2;SDS_P1;SDS_P2;PMS_P1;PMS_P2;Temp;Humidity;BMP_temperature;BMP_pressure;BME280_temperature;BME280_humidity;BME280_pressure;Samples;Min_cycle;Max_cycle;Signal;HPM_P1;HPM_P2
2023/02/11 00:00:00;;;;;;;18.20;7.07;;;;;;;;;;10369606;28;20034;-64
2023/02/11 00:05:01;;;;;;;11.57;6.38;;;;;;;;;;10369386;28;20026;-65
2023/02/11 00:10:05;;;;;;;12.02;6.40;;;;;;;;;;10366522;28;20029;-65
2023/02/11 00:15:07;;;;;;;11.85;6.88;;;;;;;;;;10367937;28;20091;-65
2023/02/11 00:20:08;;;;;;;10.45;6.32;;;;;;;;;;10369003;28;20069;-65
2023/02/11 00:25:09;;;;;;;11.35;6.80;;;;;;;;;;10367908;28;20557;-62
2023/02/11 00:30:10;;;;;;;8.77;6.35;;;;;;;;;;10368701;28;20029;-62
2023/02/11 00:35:11;;;;;;;12.90;6.60;;;;;;;;;;10368143;28;20116;-62
2023/02/11 00:40:11;;;;;;;10.77;6.80;;;;;;;;;;10367135;28;20026;-62
2023/02/11 00:45:12;;;;;;;11.27;6.80;;;;;;;;;;10368053;28;20018;-62
2023/02/11 00:50:13;;;;;;;9.82;6.43;;;;;;;;;;10367689;28;20409;-62
2023/02/11 00:55:14;;;;;;;10.05;6.80;;;;;;;;;;10367428;28;20034;-62
2023/02/11 01:00:15;;;;;;;8.05;6.32;;;;;;;;;;10367487;28;20029;-62
2023/02/11 01:05:16;;;;;;;10.52;7.00;;;;;;;;;;10366897;28;20025;-62
2023/02/11 01:10:16;;;;;;;9.95;6.18;;;;;;;;;;10366391;28;20022;-62
2023/02/11 01:15:18;;;;;;;9.18;6.03;;;;;;;;;;10366883;28;20038;-61
2023/02/11 01:20:23;;;;;;;15.40;7.32;;;;;;;;;;10364202;28;20249;-62
2023/02/11 01:25:24;;;;;;;15.63;6.35;;;;;;;;;;10365454;28;20022;-62
2023/02/11 01:30:25;;;;;;;17.00;6.78;;;;;;;;;;10366518;28;20524;-62
2023/02/11 01:35:25;;;;;;;12.45;6.13;;;;;;;;;;10370119;28;20474;-61
2023/02/11 01:40:26;;;;;;;7.47;5.93;;;;;;;;;;10379841;28;20029;-62
2023/02/11 01:45:47;;;;;;;8.52;5.85;;;;;;;;;;10379461;28;20026;-64
2023/02/11 01:50:51;;;;;;;11.45;6.00;;;;;;;;;;10379076;28;20025;-62
2023/02/11 02:01:18;;;;;;;9.13;6.00;;;;;;;;;;10378491;28;20386;-62
2023/02/11 02:06:31;;;;;;;9.75;5.68;;;;;;;;;;10377918;28;20034;-62
2023/02/11 02:11:32;;;;;;;8.35;5.90;;;;;;;;;;10374695;28;20022;-62
2023/02/11 02:16:35;;;;;;;9.07;6.47;;;;;;;;;;10377535;28;20030;-62
2023/02/11 02:22:30;;;;;;;8.98;5.88;;;;;;;;;;10377820;28;20033;-62
2023/02/11 02:27:48;;;;;;;11.00;6.28;;;;;;;;;;10377602;28;20385;-62
2023/02/11 02:33:13;;;;;;;11.25;5.65;;;;;;;;;;10367754;28;20121;-62
2023/02/11 02:38:49;;;;;;;8.70;6.10;;;;;;;;;;10370456;28;20081;-63
2023/02/11 02:43:50;;;;;;;8.95;5.70;;;;;;;;;;10378625;28;20437;-62
2023/02/11 02:48:52;;;;;;;7.75;5.05;;;;;;;;;;10372916;28;20053;-62
2023/02/11 02:54:49;;;;;;;9.73;6.30;;;;;;;;;;10371828;28;20030;-62
2023/02/11 03:00:30;;;;;;;8.05;5.65;;;;;;;;;;10371846;28;20037;-62
2023/02/11 03:06:03;;;;;;;10.07;5.97;;;;;;;;;;10361209;28;20030;-61
2023/02/11 03:11:05;;;;;;;11.05;5.95;;;;;;;;;;10370538;28;20022;-63
2023/02/11 03:16:16;;;;;;;7.82;5.53;;;;;;;;;;10369913;28;20029;-62
2023/02/11 03:21:18;;;;;;;8.70;5.50;;;;;;;;;;10370956;28;20026;-63
2023/02/11 03:26:50;;;;;;;8.70;5.95;;;;;;;;;;10370143;28;20123;-62
2023/02/11 03:32:02;;;;;;;8.32;5.82;;;;;;;;;;10369633;28;20045;-61
2023/02/11 03:37:14;;;;;;;7.93;5.60;;;;;;;;;;10370452;28;20092;-62
2023/02/11 03:42:16;;;;;;;7.10;5.35;;;;;;;;;;10369139;28;20042;-62
2023/02/11 03:47:22;;;;;;;7.05;5.65;;;;;;;;;;10348034;28;20030;-62
2023/02/11 03:52:25;;;;;;;7.13;5.43;;;;;;;;;;10363374;28;20026;-62
2023/02/11 03:57:26;;;;;;;11.63;6.13;;;;;;;;;;10360793;28;20401;-62
2023/02/11 04:02:31;;;;;;;10.65;5.53;;;;;;;;;;10356205;28;20032;-62
2023/02/11 04:07:33;;;;;;;8.80;5.63;;;;;;;;;;10367837;28;20022;-62
2023/02/11 04:12:33;;;;;;;10.00;5.55;;;;;;;;;;10367778;28;20072;-62
2023/02/11 04:17:34;;;;;;;9.48;5.40;;;;;;;;;;10365734;28;20035;-62
2023/02/11 04:22:35;;;;;;;7.53;5.60;;;;;;;;;;10358532;28;20038;-62
2023/02/11 04:27:36;;;;;;;8.80;5.70;;;;;;;;;;10368418;28;20084;-62
2023/02/11 04:32:37;;;;;;;10.18;4.75;;;;;;;;;;10368048;28;20327;-62
2023/02/11 04:37:37;;;;;;;7.25;5.50;;;;;;;;;;10367911;28;20045;-61
2023/02/11 04:42:38;;;;;;;8.88;5.47;;;;;;;;;;10368009;28;20033;-65
2023/02/11 04:47:38;;;;;;;7.85;5.13;;;;;;;;;;10367607;28;20116;-61
2023/02/11 04:52:39;;;;;;;7.15;5.40;;;;;;;;;;10367180;28;20034;-63
2023/02/11 04:57:39;;;;;;;9.75;5.43;;;;;;;;;;10367666;28;20436;-64
2023/02/11 05:02:40;;;;;;;9.85;5.70;;;;;;;;;;10367425;28;20136;-61
2023/02/11 05:07:40;;;;;;;9.38;5.32;;;;;;;;;;10366650;28;20030;-61
2023/02/11 05:12:41;;;;;;;8.27;5.57;;;;;;;;;;10366483;28;20049;-61
2023/02/11 05:17:42;;;;;;;6.82;4.97;;;;;;;;;;10366767;28;20480;-61
2023/02/11 05:22:42;;;;;;;7.45;5.80;;;;;;;;;;10367148;28;20037;-60
2023/02/11 05:27:43;;;;;;;9.05;5.70;;;;;;;;;;10366565;28;20018;-61
2023/02/11 05:32:43;;;;;;;7.30;5.18;;;;;;;;;;10365898;28;20100;-61
2023/02/11 05:37:44;;;;;;;7.53;4.88;;;;;;;;;;10366332;28;20065;-61
2023/02/11 05:42:45;;;;;;;10.77;5.32;;;;;;;;;;10366245;28;20382;-61
2023/02/11 05:47:45;;;;;;;13.35;4.97;;;;;;;;;;10365982;28;20038;-63
2023/02/11 05:52:46;;;;;;;6.43;4.78;;;;;;;;;;10364888;28;20057;-62
2023/02/11 05:57:46;;;;;;;7.47;5.03;;;;;;;;;;10366210;28;20030;-62
2023/02/11 06:02:47;;;;;;;7.45;5.43;;;;;;;;;;10365520;28;20472;-62
2023/02/11 06:07:47;;;;;;;6.70;5.03;;;;;;;;;;10366107;28;20029;-62
2023/02/11 06:12:48;;;;;;;8.43;5.57;;;;;;;;;;10363977;28;20030;-62
2023/02/11 06:17:49;;;;;;;5.70;4.53;;;;;;;;;;10364828;28;20041;-62
2023/02/11 06:22:50;;;;;;;6.75;5.43;;;;;;;;;;10367051;28;20469;-63
2023/02/11 06:27:50;;;;;;;6.03;4.68;;;;;;;;;;10372875;28;20021;-62
2023/02/11 06:32:51;;;;;;;6.68;4.93;;;;;;;;;;10372587;28;20029;-62
2023/02/11 06:37:52;;;;;;;6.18;4.70;;;;;;;;;;10369954;28;20095;-62
2023/02/11 06:42:53;;;;;;;6.07;4.65;;;;;;;;;;10371840;28;20041;-61
2023/02/11 06:47:53;;;;;;;6.72;4.75;;;;;;;;;;10370506;28;20037;-62
2023/02/11 06:52:54;;;;;;;6.75;5.07;;;;;;;;;;10371245;28;20036;-62
2023/02/11 06:57:55;;;;;;;6.45;4.18;;;;;;;;;;10371340;28;20026;-63
2023/02/11 07:02:55;;;;;;;5.13;4.10;;;;;;;;;;10370448;28;20022;-62
2023/02/11 07:07:56;;;;;;;7.28;5.30;;;;;;;;;;10369439;28;20033;-63
2023/02/11 07:12:57;;;;;;;6.32;4.45;;;;;;;;;;10371416;28;20485;-62
2023/02/11 07:17:58;;;;;;;9.65;4.47;;;;;;;;;;10371168;28;20552;-62
2023/02/11 07:22:59;;;;;;;6.40;4.35;;;;;;;;;;10369717;28;20116;-62
2023/02/11 07:27:59;;;;;;;15.98;5.40;;;;;;;;;;10359866;28;20038;-61
2023/02/11 07:33:00;;;;;;;13.75;5.43;;;;;;;;;;10366346;28;20018;-61
2023/02/11 07:38:00;;;;;;;10.98;7.13;;;;;;;;;;10368888;28;20041;-62
2023/02/11 07:43:01;;;;;;;27.83;10.00;;;;;;;;;;10369208;28;20029;-61
2023/02/11 07:48:02;;;;;;;37.78;10.25;;;;;;;;;;10367179;28;20510;-61
2023/02/11 07:53:03;;;;;;;23.02;10.27;;;;;;;;;;10368535;28;20030;-62
2023/02/11 07:58:03;;;;;;;20.33;11.05;;;;;;;;;;10369607;28;20466;-62
2023/02/11 08:03:06;;;;;;;21.63;9.68;;;;;;;;;;10367149;28;20121;-61
2023/02/11 08:08:07;;;;;;;21.33;9.93;;;;;;;;;;10368110;28;20041;-62
2023/02/11 08:13:07;;;;;;;24.42;10.60;;;;;;;;;;10365197;28;20492;-63
2023/02/11 08:18:08;;;;;;;23.75;9.30;;;;;;;;;;10365557;28;20747;-65
2023/02/11 08:23:08;;;;;;;16.60;9.43;;;;;;;;;;10368339;28;20362;-69
2023/02/11 08:28:09;;;;;;;28.83;17.52;;;;;;;;;;10367484;28;20022;-66
2023/02/11 08:33:09;;;;;;;26.42;14.82;;;;;;;;;;10365747;28;20366;-66
2023/02/11 08:38:10;;;;;;;29.80;15.57;;;;;;;;;;10365033;28;20512;-67
2023/02/11 08:43:11;;;;;;;25.25;14.48;;;;;;;;;;10367846;28;20025;-64
2023/02/11 08:48:11;;;;;;;25.20;14.38;;;;;;;;;;10366530;28;20030;-66
2023/02/11 08:53:12;;;;;;;30.75;13.10;;;;;;;;;;10364842;28;20065;-64
2023/02/11 08:58:12;;;;;;;29.15;12.20;;;;;;;;;;10359938;28;20064;-62
2023/02/11 09:03:14;;;;;;;23.70;10.43;;;;;;;;;;10358455;28;20526;-62
2023/02/11 09:08:15;;;;;;;27.73;10.82;;;;;;;;;;10366043;28;20062;-61
2023/02/11 09:13:16;;;;;;;30.15;10.02;;;;;;;;;;10356360;28;20038;-62
2023/02/11 09:18:17;;;;;;;27.13;10.73;;;;;;;;;;10362805;28;20033;-63
2023/02/11 09:23:17;;;;;;;26.02;11.23;;;;;;;;;;10363709;28;20030;-61
2023/02/11 09:28:18;;;;;;;21.77;10.32;;;;;;;;;;10362626;28;20075;-61
2023/02/11 09:33:18;;;;;;;31.10;10.55;;;;;;;;;;10364960;28;20289;-61
2023/02/11 09:38:19;;;;;;;25.30;9.77;;;;;;;;;;10363983;28;20050;-61
2023/02/11 09:43:26;;;;;;;21.70;10.07;;;;;;;;;;10365414;28;20080;-62
2023/02/11 09:48:40;;;;;;;23.38;9.20;;;;;;;;;;10363619;28;20025;-62
2023/02/11 09:53:42;;;;;;;18.35;9.70;;;;;;;;;;10358016;28;20030;-62
2023/02/11 09:58:44;;;;;;;17.80;9.75;;;;;;;;;;10364122;28;20029;-61
2023/02/11 10:03:56;;;;;;;19.17;9.68;;;;;;;;;;10370198;28;20014;-61
2023/02/11 10:09:40;;;;;;;16.58;8.70;;;;;;;;;;10372560;28;20025;-61
2023/02/11 10:15:03;;;;;;;15.50;8.98;;;;;;;;;;10367721;28;20038;-62
2023/02/11 10:20:06;;;;;;;16.48;9.05;;;;;;;;;;10372354;28;20405;-61
2023/02/11 10:25:33;;;;;;;16.48;9.35;;;;;;;;;;10373513;28;20029;-61
2023/02/11 10:30:39;;;;;;;14.93;8.90;;;;;;;;;;10367057;28;20454;-61
2023/02/11 10:35:42;;;;;;;16.83;9.75;;;;;;;;;;10394730;23;20424;-62
2023/02/11 10:40:43;;;;;;;12.40;7.90;;;;;;;;;;10413887;28;20025;-60
2023/02/11 10:45:49;;;;;;;23.38;8.77;;;;;;;;;;10395902;28;20030;-61
2023/02/11 10:50:55;;;;;;;14.00;7.85;;;;;;;;;;10370178;28;20033;-61
2023/02/11 10:55:56;;;;;;;12.05;7.70;;;;;;;;;;10363178;28;20474;-61
2023/02/11 11:00:59;;;;;;;11.13;7.55;;;;;;;;;;10370114;28;20049;-61
2023/02/11 11:06:02;;;;;;;11.77;7.20;;;;;;;;;;10359923;28;20033;-61
2023/02/11 11:11:15;;;;;;;10.27;7.53;;;;;;;;;;10369498;28;20282;-59
2023/02/11 11:16:25;;;;;;;10.35;6.72;;;;;;;;;;10368916;28;20250;-61
2023/02/11 11:21:40;;;;;;;11.00;6.97;;;;;;;;;;10368892;28;20189;-60
2023/02/11 11:26:44;;;;;;;10.63;6.82;;;;;;;;;;10369499;28;20030;-60
2023/02/11 11:31:59;;;;;;;11.05;6.90;;;;;;;;;;10365745;28;20060;-61
2023/02/11 11:37:23;;;;;;;9.32;6.68;;;;;;;;;;10372720;28;20049;-61
2023/02/11 11:42:36;;;;;;;8.82;6.10;;;;;;;;;;10370589;28;20105;-61
2023/02/11 11:48:00;;;;;;;9.60;6.20;;;;;;;;;;10370569;28;20033;-61
2023/02/11 11:53:18;;;;;;;10.90;6.13;;;;;;;;;;10362431;28;20022;-60
2023/02/11 11:58:21;;;;;;;10.00;7.17;;;;;;;;;;10362448;28;20362;-61
2023/02/11 12:04:02;;;;;;;7.00;5.55;;;;;;;;;;10366628;28;20549;-61
2023/02/11 12:09:59;;;;;;;8.93;6.03;;;;;;;;;;10361863;28;20478;-60
2023/02/11 12:15:38;;;;;;;9.38;6.20;;;;;;;;;;10359704;28;20033;-61
2023/02/11 12:21:18;;;;;;;10.43;6.47;;;;;;;;;;10362827;28;20045;-60
2023/02/11 12:26:37;;;;;;;8.75;5.97;;;;;;;;;;10367394;28;20030;-60
2023/02/11 12:32:04;;;;;;;9.43;6.53;;;;;;;;;;10366160;28;20478;-61
2023/02/11 12:37:35;;;;;;;10.50;6.20;;;;;;;;;;10358869;28;20119;-61
2023/02/11 12:43:20;;;;;;;7.18;5.63;;;;;;;;;;10366480;28;20030;-61
2023/02/11 12:48:39;;;;;;;14.15;7.45;;;;;;;;;;10362247;28;20030;-61
2023/02/11 12:54:21;;;;;;;17.00;10.45;;;;;;;;;;10357069;28;20053;-60
2023/02/11 12:59:55;;;;;;;22.35;9.90;;;;;;;;;;10347747;28;20498;-61
2023/02/11 13:05:23;;;;;;;14.55;9.50;;;;;;;;;;10356006;28;20022;-61
2023/02/11 13:10:23;;;;;;;12.63;9.40;;;;;;;;;;10377596;28;20041;-61
2023/02/11 13:15:25;;;;;;;14.63;8.70;;;;;;;;;;10365251;28;20505;-61
2023/02/11 13:20:44;;;;;;;12.50;8.52;;;;;;;;;;10366464;28;20446;-62
2023/02/11 13:25:57;;;;;;;11.20;8.18;;;;;;;;;;10361797;28;20033;-62
2023/02/11 13:31:02;;;;;;;13.40;8.48;;;;;;;;;;10377321;28;20482;-62
2023/02/11 13:36:03;;;;;;;11.25;7.43;;;;;;;;;;10362173;28;20048;-62
2023/02/11 13:41:41;;;;;;;11.90;8.18;;;;;;;;;;10355347;28;20033;-62
2023/02/11 13:47:03;;;;;;;11.00;8.10;;;;;;;;;;10354121;28;20042;-61
2023/02/11 13:52:23;;;;;;;11.25;7.32;;;;;;;;;;10359332;28;20153;-60
2023/02/11 13:57:36;;;;;;;12.15;6.82;;;;;;;;;;10355266;28;20033;-61
2023/02/11 14:13:54;;;;;;;17.02;7.15;;;;;;;;;;10364986;28;20034;-61
2023/02/11 14:18:54;;;;;;;13.10;7.70;;;;;;;;;;10364672;28;20128;-60
2023/02/11 14:24:18;;;;;;;10.63;6.10;;;;;;;;;;10354526;28;20029;-61
2023/02/11 14:29:39;;;;;;;13.15;6.50;;;;;;;;;;10340598;28;20049;-61
2023/02/11 14:34:58;;;;;;;9.68;6.25;;;;;;;;;;10360149;28;20050;-58
2023/02/11 14:40:04;;;;;;;11.40;6.35;;;;;;;;;;10363241;28;20033;-58
2023/02/11 14:45:14;;;;;;;8.75;5.88;;;;;;;;;;10369937;28;20473;-58
2023/02/11 14:50:30;;;;;;;9.05;6.82;;;;;;;;;;10372258;28;20108;-58
2023/02/11 14:55:36;;;;;;;11.18;6.10;;;;;;;;;;10364293;28;20459;-58
2023/02/11 15:00:55;;;;;;;8.60;6.28;;;;;;;;;;10371025;28;20112;-58
2023/02/11 15:06:00;;;;;;;9.83;6.40;;;;;;;;;;10371951;28;20032;-58
2023/02/11 15:11:06;;;;;;;9.68;6.05;;;;;;;;;;10371264;28;20022;-58
2023/02/11 15:16:09;;;;;;;10.60;6.20;;;;;;;;;;10370188;28;20041;-58
2023/02/11 15:21:10;;;;;;;9.70;6.40;;;;;;;;;;10371328;28;20021;-57
2023/02/11 15:26:20;;;;;;;9.48;6.10;;;;;;;;;;10367801;28;20022;-58
2023/02/11 15:31:25;;;;;;;7.95;6.35;;;;;;;;;;10369765;28;20410;-58
2023/02/11 15:36:29;;;;;;;10.10;6.03;;;;;;;;;;10370031;28;20429;-57
2023/02/11 15:41:36;;;;;;;9.43;6.10;;;;;;;;;;10369106;28;20497;-58
2023/02/11 15:46:38;;;;;;;11.05;6.50;;;;;;;;;;10370347;28;20034;-58
2023/02/11 15:51:44;;;;;;;8.95;6.53;;;;;;;;;;10367963;28;20034;-58
2023/02/11 15:56:49;;;;;;;11.25;6.15;;;;;;;;;;10363739;28;20100;-57
2023/02/11 16:01:51;;;;;;;10.27;6.13;;;;;;;;;;10367035;28;20393;-58
2023/02/11 16:06:54;;;;;;;10.05;6.15;;;;;;;;;;10368131;28;20585;-58
2023/02/11 16:11:58;;;;;;;9.05;6.32;;;;;;;;;;10368667;28;20044;-58
2023/02/11 16:17:17;;;;;;;9.43;6.28;;;;;;;;;;10365211;28;20026;-58
2023/02/11 16:22:28;;;;;;;9.65;6.45;;;;;;;;;;10366744;28;20045;-58
2023/02/11 16:27:39;;;;;;;10.13;6.28;;;;;;;;;;10358168;28;20046;-58
2023/02/11 16:32:40;;;;;;;10.98;5.50;;;;;;;;;;10375240;28;20234;-57
2023/02/11 16:37:40;;;;;;;16.35;6.85;;;;;;;;;;10365305;28;20158;-58
2023/02/11 16:42:41;;;;;;;9.40;5.63;;;;;;;;;;10355867;28;20393;-60
2023/02/11 16:47:42;;;;;;;8.75;6.13;;;;;;;;;;10358522;28;20025;-58
2023/02/11 16:52:45;;;;;;;8.65;5.88;;;;;;;;;;10364917;28;20022;-58
2023/02/11 16:57:45;;;;;;;8.18;6.18;;;;;;;;;;10356732;28;20072;-58
2023/02/11 17:02:46;;;;;;;9.07;6.25;;;;;;;;;;10357355;28;20029;-58
2023/02/11 17:07:48;;;;;;;8.35;6.13;;;;;;;;;;10364022;28;20041;-59
2023/02/11 17:12:50;;;;;;;10.25;5.88;;;;;;;;;;10365416;28;21144;-59
2023/02/11 17:17:50;;;;;;;9.38;6.15;;;;;;;;;;10366667;28;20268;-58
2023/02/11 17:22:51;;;;;;;12.27;6.38;;;;;;;;;;10363259;28;20277;-58
2023/02/11 17:27:52;;;;;;;13.48;5.95;;;;;;;;;;10357950;28;20033;-59
2023/02/11 17:32:53;;;;;;;17.33;6.78;;;;;;;;;;10364256;28;20021;-59
2023/02/11 17:37:53;;;;;;;13.45;5.85;;;;;;;;;;10365754;28;20049;-59
2023/02/11 17:42:54;;;;;;;10.52;5.80;;;;;;;;;;10361728;28;20053;-59
2023/02/11 17:47:54;;;;;;;10.90;5.75;;;;;;;;;;10363958;28;20088;-59
2023/02/11 17:52:56;;;;;;;12.80;6.68;;;;;;;;;;10356141;28;20021;-58
2023/02/11 17:57:56;;;;;;;9.13;6.40;;;;;;;;;;10365452;28;20028;-58
2023/02/11 18:03:01;;;;;;;9.38;5.32;;;;;;;;;;10363427;28;20038;-58
2023/02/11 18:08:04;;;;;;;10.02;6.10;;;;;;;;;;10365506;28;20120;-58
2023/02/11 18:13:05;;;;;;;9.70;6.07;;;;;;;;;;10364043;28;20080;-58
2023/02/11 18:18:06;;;;;;;11.60;5.85;;;;;;;;;;10364121;28;20100;-59
2023/02/11 18:23:06;;;;;;;17.92;5.60;;;;;;;;;;10372428;28;20076;-59
2023/02/11 18:28:07;;;;;;;10.48;5.80;;;;;;;;;;10371500;28;20034;-58
2023/02/11 18:33:10;;;;;;;9.45;5.25;;;;;;;;;;10372811;28;20045;-57
2023/02/11 18:38:11;;;;;;;8.90;5.40;;;;;;;;;;10371439;28;20111;-58
2023/02/11 18:43:21;;;;;;;15.75;5.60;;;;;;;;;;10371665;28;20029;-57
2023/02/11 18:48:22;;;;;;;18.30;6.68;;;;;;;;;;10370737;28;20528;-57
2023/02/11 18:53:23;;;;;;;12.95;7.35;;;;;;;;;;10365539;28;20084;-57
2023/02/11 18:58:24;;;;;;;14.95;6.93;;;;;;;;;;10369689;28;20394;-56
2023/02/11 19:03:24;;;;;;;13.00;7.18;;;;;;;;;;10371671;28;20038;-58
2023/02/11 19:08:25;;;;;;;12.68;7.10;;;;;;;;;;10363899;28;20032;-58
2023/02/11 19:13:28;;;;;;;13.55;7.55;;;;;;;;;;10368252;28;20033;-57
2023/02/11 19:18:28;;;;;;;17.60;8.05;;;;;;;;;;10369800;28;20033;-58
2023/02/11 19:23:29;;;;;;;16.45;8.80;;;;;;;;;;10371211;28;20030;-57
2023/02/11 19:28:31;;;;;;;20.42;9.23;;;;;;;;;;10369712;28;20045;-59
2023/02/11 19:33:31;;;;;;;20.88;8.68;;;;;;;;;;10370228;28;20477;-58
2023/02/11 19:38:33;;;;;;;27.33;9.35;;;;;;;;;;10367620;28;20054;-58
2023/02/11 19:43:33;;;;;;;27.92;8.85;;;;;;;;;;10370635;28;20030;-58
2023/02/11 19:48:34;;;;;;;23.27;8.65;;;;;;;;;;10370230;28;20068;-57
2023/02/11 19:53:35;;;;;;;14.05;8.00;;;;;;;;;;10363808;28;20458;-57
2023/02/11 19:58:37;;;;;;;21.63;8.38;;;;;;;;;;10369960;28;20053;-58
2023/02/11 20:03:39;;;;;;;19.88;8.48;;;;;;;;;;10370318;28;20069;-58
2023/02/11 20:08:40;;;;;;;29.00;7.97;;;;;;;;;;10369506;28;20059;-57
2023/02/11 20:13:41;;;;;;;21.20;7.93;;;;;;;;;;10369727;28;20044;-58
2023/02/11 20:18:43;;;;;;;19.73;8.98;;;;;;;;;;10369398;28;20292;-58
2023/02/11 20:23:45;;;;;;;22.13;9.05;;;;;;;;;;10369371;28;20030;-57
2023/02/11 20:28:47;;;;;;;15.70;8.10;;;;;;;;;;10369177;28;20033;-57
2023/02/11 20:33:48;;;;;;;22.27;8.23;;;;;;;;;;10368728;28;20101;-57
2023/02/11 20:38:49;;;;;;;17.13;8.45;;;;;;;;;;10368231;28;20041;-57
2023/02/11 20:43:53;;;;;;;14.38;7.90;;;;;;;;;;10367811;28;20057;-57
2023/02/11 20:48:56;;;;;;;20.10;8.68;;;;;;;;;;10368045;28;20046;-57
2023/02/11 20:53:57;;;;;;;17.75;8.95;;;;;;;;;;10361156;28;20033;-57
2023/02/11 20:58:59;;;;;;;18.60;8.15;;;;;;;;;;10367595;28;20036;-58
2023/02/11 21:04:04;;;;;;;14.20;8.27;;;;;;;;;;10367322;28;20072;-58
2023/02/11 21:09:07;;;;;;;14.88;8.70;;;;;;;;;;10367299;28;20018;-57
2023/02/11 21:14:09;;;;;;;13.30;8.70;;;;;;;;;;10366867;28;20095;-58
2023/02/11 21:19:10;;;;;;;16.45;8.05;;;;;;;;;;10367186;28;20030;-57
2023/02/11 21:24:11;;;;;;;14.57;8.85;;;;;;;;;;10366769;28;20025;-58
2023/02/11 21:29:12;;;;;;;13.63;8.65;;;;;;;;;;10366865;28;20119;-57
2023/02/11 21:34:14;;;;;;;13.85;8.80;;;;;;;;;;10366504;28;20022;-58
2023/02/11 21:39:16;;;;;;;11.65;8.20;;;;;;;;;;10366391;28;20046;-57
2023/02/11 21:44:17;;;;;;;14.95;8.73;;;;;;;;;;10366629;28;20037;-57
2023/02/11 21:49:19;;;;;;;16.20;8.93;;;;;;;;;;10367009;28;20022;-58
2023/02/11 21:54:19;;;;;;;15.10;9.05;;;;;;;;;;10364926;28;20389;-57
2023/02/11 21:59:20;;;;;;;14.77;9.73;;;;;;;;;;10362163;28;20022;-57
2023/02/11 22:04:20;;;;;;;18.58;10.05;;;;;;;;;;10364966;28;20034;-55
2023/02/11 22:09:21;;;;;;;16.25;9.13;;;;;;;;;;10368714;28;20029;-55
2023/02/11 22:14:22;;;;;;;18.17;9.27;;;;;;;;;;10370268;28;20240;-57
2023/02/11 22:19:22;;;;;;;12.20;8.45;;;;;;;;;;10371982;28;20504;-57
2023/02/11 22:24:23;;;;;;;18.77;9.02;;;;;;;;;;10370369;28;20060;-57
2023/02/11 22:29:24;;;;;;;14.57;8.95;;;;;;;;;;10367909;28;20034;-57
2023/02/11 22:34:24;;;;;;;17.60;8.77;;;;;;;;;;10371438;28;20393;-60
2023/02/11 22:39:25;;;;;;;21.48;8.48;;;;;;;;;;10372191;28;20273;-57
2023/02/11 22:44:26;;;;;;;11.82;8.55;;;;;;;;;;10371115;28;20038;-57
2023/02/11 22:49:27;;;;;;;15.00;9.15;;;;;;;;;;10371982;28;20108;-59
2023/02/11 22:54:28;;;;;;;14.23;8.68;;;;;;;;;;10364592;28;20032;-57
2023/02/11 22:59:32;;;;;;;15.90;8.93;;;;;;;;;;10372145;28;20025;-57
2023/02/11 23:04:33;;;;;;;13.93;8.40;;;;;;;;;;10360875;28;20117;-58
2023/02/11 23:09:34;;;;;;;14.52;8.52;;;;;;;;;;10371155;28;20024;-58
2023/02/11 23:14:34;;;;;;;21.13;8.15;;;;;;;;;;10371344;28;20501;-58
2023/02/11 23:19:35;;;;;;;14.38;8.57;;;;;;;;;;10370391;28;20474;-57
2023/02/11 23:24:35;;;;;;;13.02;7.93;;;;;;;;;;10371299;28;20497;-58
2023/02/11 23:29:36;;;;;;;12.57;7.85;;;;;;;;;;10371343;28;20030;-58
2023/02/11 23:34:37;;;;;;;18.38;7.72;;;;;;;;;;10369779;28;20301;-58
2023/02/11 23:39:37;;;;;;;13.20;7.90;;;;;;;;;;10370630;28;20041;-57
2023/02/11 23:44:38;;;;;;;13.02;8.20;;;;;;;;;;10370698;28;20034;-57
2023/02/11 23:49:38;;;;;;;12.77;7.80;;;;;;;;;;10369653;28;20045;-58
2023/02/11 23:54:39;;;;;;;12.70;7.60;;;;;;;;;;10362860;28;20025;-56
2023/02/11 23:59:40;;;;;;;14.13;7.90;;;;;;;;;;10369950;28;20026;-55
